Ellisford, Washington
Current Conditions -  °F | °C
As of 4:53 PM on Thursday 27 Nov 2014 (Local Time) from KOMK Reporting Station
Few Clouds Few Clouds  
Wind Chill: 38°   Ceiling: Unl
Heat Index: 43°   Visibility: 10mi
Dew Point: 37°   Wind: 9mph
Humidity: 80%   Direction: 210°SSW
Pressure: 29.68"   Gusts: NA
Location:  48.6708°N, 119.278°W
Report Text: KOMK 280053Z AUTO 21008KT 10SM FEW085 06/03 A2968 RMK AO2 SLP060 T00610028
Loading
Personal Weather Stations






























Interactive Weather Map New forecast layout! Learn more

10-Day Weather Forecast

Advertisements
Track Severe Weather on mobile